sensor_id;sensor_type;location;lat;lon;timestamp;P1;durP1;ratioP1;P2;durP2;ratioP2
73474;SDS011;61711;52.266;10.542;2023-02-21T00:01:21;37.63;;;15.18;;
73474;SDS011;61711;52.266;10.542;2023-02-21T00:04:06;37.85;;;14.10;;
73474;SDS011;61711;52.266;10.542;2023-02-21T00:06:50;36.92;;;14.25;;
73474;SDS011;61711;52.266;10.542;2023-02-21T00:09:37;37.45;;;13.05;;
73474;SDS011;61711;52.266;10.542;2023-02-21T00:12:22;36.92;;;13.50;;
73474;SDS011;61711;52.266;10.542;2023-02-21T00:15:06;35.83;;;13.20;;
73474;SDS011;61711;52.266;10.542;2023-02-21T00:17:51;35.00;;;13.27;;
73474;SDS011;61711;52.266;10.542;2023-02-21T00:20:36;36.75;;;14.07;;
73474;SDS011;61711;52.266;10.542;2023-02-21T00:23:20;35.30;;;13.90;;
73474;SDS011;61711;52.266;10.542;2023-02-21T00:26:05;38.70;;;13.98;;
73474;SDS011;61711;52.266;10.542;2023-02-21T00:28:49;36.83;;;14.43;;
73474;SDS011;61711;52.266;10.542;2023-02-21T00:31:34;33.80;;;13.82;;
73474;SDS011;61711;52.266;10.542;2023-02-21T00:34:18;37.95;;;14.80;;
73474;SDS011;61711;52.266;10.542;2023-02-21T00:37:03;35.70;;;14.50;;
73474;SDS011;61711;52.266;10.542;2023-02-21T00:39:48;34.30;;;13.93;;
73474;SDS011;61711;52.266;10.542;2023-02-21T00:42:32;38.65;;;14.45;;
73474;SDS011;61711;52.266;10.542;2023-02-21T00:45:17;35.20;;;13.57;;
73474;SDS011;61711;52.266;10.542;2023-02-21T00:48:01;40.33;;;15.23;;
73474;SDS011;61711;52.266;10.542;2023-02-21T00:50:46;39.53;;;14.95;;
73474;SDS011;61711;52.266;10.542;2023-02-21T00:53:31;38.45;;;14.63;;
73474;SDS011;61711;52.266;10.542;2023-02-21T00:56:15;39.38;;;16.08;;
73474;SDS011;61711;52.266;10.542;2023-02-21T00:59:00;37.65;;;15.05;;
73474;SDS011;61711;52.266;10.542;2023-02-21T01:01:44;41.30;;;15.32;;
73474;SDS011;61711;52.266;10.542;2023-02-21T01:04:29;38.45;;;14.60;;
73474;SDS011;61711;52.266;10.542;2023-02-21T01:07:13;41.63;;;15.40;;
73474;SDS011;61711;52.266;10.542;2023-02-21T01:09:58;39.55;;;15.68;;
73474;SDS011;61711;52.266;10.542;2023-02-21T01:12:43;37.40;;;14.80;;
73474;SDS011;61711;52.266;10.542;2023-02-21T01:15:27;38.33;;;15.35;;
73474;SDS011;61711;52.266;10.542;2023-02-21T01:18:12;38.55;;;15.68;;
73474;SDS011;61711;52.266;10.542;2023-02-21T01:20:56;39.88;;;15.80;;
73474;SDS011;61711;52.266;10.542;2023-02-21T01:23:41;35.22;;;14.02;;
73474;SDS011;61711;52.266;10.542;2023-02-21T01:26:25;36.53;;;13.98;;
73474;SDS011;61711;52.266;10.542;2023-02-21T01:29:10;34.95;;;14.05;;
73474;SDS011;61711;52.266;10.542;2023-02-21T01:31:54;33.20;;;14.23;;
73474;SDS011;61711;52.266;10.542;2023-02-21T01:34:39;38.25;;;15.13;;
73474;SDS011;61711;52.266;10.542;2023-02-21T01:37:23;34.42;;;13.73;;
73474;SDS011;61711;52.266;10.542;2023-02-21T01:40:08;35.35;;;14.25;;
73474;SDS011;61711;52.266;10.542;2023-02-21T01:42:57;36.25;;;14.23;;
73474;SDS011;61711;52.266;10.542;2023-02-21T01:45:44;34.22;;;14.60;;
73474;SDS011;61711;52.266;10.542;2023-02-21T01:48:30;33.22;;;13.52;;
73474;SDS011;61711;52.266;10.542;2023-02-21T01:51:17;32.60;;;13.18;;
73474;SDS011;61711;52.266;10.542;2023-02-21T01:54:02;33.60;;;13.70;;
73474;SDS011;61711;52.266;10.542;2023-02-21T01:56:47;34.35;;;14.07;;
73474;SDS011;61711;52.266;10.542;2023-02-21T01:59:32;40.00;;;14.68;;
73474;SDS011;61711;52.266;10.542;2023-02-21T02:05:08;39.40;;;15.40;;
73474;SDS011;61711;52.266;10.542;2023-02-21T02:07:54;45.63;;;16.38;;
73474;SDS011;61711;52.266;10.542;2023-02-21T02:10:40;42.38;;;17.23;;
73474;SDS011;61711;52.266;10.542;2023-02-21T02:13:42;42.70;;;16.85;;
73474;SDS011;61711;52.266;10.542;2023-02-21T02:16:14;41.33;;;15.90;;
73474;SDS011;61711;52.266;10.542;2023-02-21T02:34:05;39.42;;;15.32;;
73474;SDS011;61711;52.266;10.542;2023-02-21T02:36:39;39.58;;;15.45;;
73474;SDS011;61711;52.266;10.542;2023-02-21T02:46:51;39.03;;;14.82;;
73474;SDS011;61711;52.266;10.542;2023-02-21T02:49:18;34.65;;;14.10;;
73474;SDS011;61711;52.266;10.542;2023-02-21T02:51:45;32.75;;;14.05;;
73474;SDS011;61711;52.266;10.542;2023-02-21T02:54:11;36.05;;;14.40;;
73474;SDS011;61711;52.266;10.542;2023-02-21T02:56:37;33.53;;;13.10;;
73474;SDS011;61711;52.266;10.542;2023-02-21T02:59:05;32.72;;;13.48;;
73474;SDS011;61711;52.266;10.542;2023-02-21T03:07:01;36.35;;;14.52;;
73474;SDS011;61711;52.266;10.542;2023-02-21T03:09:34;38.08;;;16.02;;
73474;SDS011;61711;52.266;10.542;2023-02-21T03:12:03;42.60;;;16.08;;
73474;SDS011;61711;52.266;10.542;2023-02-21T03:14:37;40.15;;;15.98;;
73474;SDS011;61711;52.266;10.542;2023-02-21T03:17:08;40.47;;;16.90;;
73474;SDS011;61711;52.266;10.542;2023-02-21T03:19:35;44.92;;;17.13;;
73474;SDS011;61711;52.266;10.542;2023-02-21T03:22:04;43.92;;;17.58;;
73474;SDS011;61711;52.266;10.542;2023-02-21T03:24:31;45.40;;;16.98;;
73474;SDS011;61711;52.266;10.542;2023-02-21T03:26:59;47.15;;;17.98;;
73474;SDS011;61711;52.266;10.542;2023-02-21T03:29:27;47.58;;;16.63;;
73474;SDS011;61711;52.266;10.542;2023-02-21T03:31:55;46.78;;;17.40;;
73474;SDS011;61711;52.266;10.542;2023-02-21T03:34:21;47.90;;;18.70;;
73474;SDS011;61711;52.266;10.542;2023-02-21T03:36:47;45.40;;;17.33;;
73474;SDS011;61711;52.266;10.542;2023-02-21T03:39:13;43.72;;;17.50;;
73474;SDS011;61711;52.266;10.542;2023-02-21T03:41:39;47.22;;;17.17;;
73474;SDS011;61711;52.266;10.542;2023-02-21T03:44:05;43.53;;;18.00;;
73474;SDS011;61711;52.266;10.542;2023-02-21T03:46:31;44.50;;;17.77;;
73474;SDS011;61711;52.266;10.542;2023-02-21T03:48:59;44.67;;;18.17;;
73474;SDS011;61711;52.266;10.542;2023-02-21T03:51:25;44.67;;;16.30;;
73474;SDS011;61711;52.266;10.542;2023-02-21T03:53:51;40.92;;;17.25;;
73474;SDS011;61711;52.266;10.542;2023-02-21T03:56:17;42.40;;;15.52;;
73474;SDS011;61711;52.266;10.542;2023-02-21T03:58:42;45.30;;;16.77;;
73474;SDS011;61711;52.266;10.542;2023-02-21T04:01:08;39.83;;;15.80;;
73474;SDS011;61711;52.266;10.542;2023-02-21T04:03:34;39.75;;;16.05;;
73474;SDS011;61711;52.266;10.542;2023-02-21T04:06:00;41.35;;;16.33;;
73474;SDS011;61711;52.266;10.542;2023-02-21T04:08:28;41.33;;;16.02;;
73474;SDS011;61711;52.266;10.542;2023-02-21T04:10:54;39.60;;;15.15;;
73474;SDS011;61711;52.266;10.542;2023-02-21T04:13:20;41.78;;;15.88;;
73474;SDS011;61711;52.266;10.542;2023-02-21T04:15:47;42.42;;;15.93;;
73474;SDS011;61711;52.266;10.542;2023-02-21T04:18:13;39.50;;;16.02;;
73474;SDS011;61711;52.266;10.542;2023-02-21T04:20:39;42.00;;;16.45;;
73474;SDS011;61711;52.266;10.542;2023-02-21T04:23:05;43.95;;;16.58;;
73474;SDS011;61711;52.266;10.542;2023-02-21T04:25:31;38.97;;;15.95;;
73474;SDS011;61711;52.266;10.542;2023-02-21T04:27:57;41.75;;;15.25;;
73474;SDS011;61711;52.266;10.542;2023-02-21T04:30:23;41.42;;;16.38;;
73474;SDS011;61711;52.266;10.542;2023-02-21T04:32:49;38.67;;;15.55;;
73474;SDS011;61711;52.266;10.542;2023-02-21T04:35:15;38.75;;;16.02;;
73474;SDS011;61711;52.266;10.542;2023-02-21T04:37:41;36.95;;;14.73;;
73474;SDS011;61711;52.266;10.542;2023-02-21T04:40:09;41.60;;;15.57;;
73474;SDS011;61711;52.266;10.542;2023-02-21T04:42:35;35.75;;;14.70;;
73474;SDS011;61711;52.266;10.542;2023-02-21T04:45:01;35.60;;;15.30;;
73474;SDS011;61711;52.266;10.542;2023-02-21T04:47:27;40.75;;;16.20;;
73474;SDS011;61711;52.266;10.542;2023-02-21T04:49:53;41.75;;;16.15;;
73474;SDS011;61711;52.266;10.542;2023-02-21T04:52:19;44.85;;;17.35;;
73474;SDS011;61711;52.266;10.542;2023-02-21T04:54:45;41.60;;;16.13;;
73474;SDS011;61711;52.266;10.542;2023-02-21T04:57:12;42.22;;;16.70;;
73474;SDS011;61711;52.266;10.542;2023-02-21T04:59:38;43.78;;;16.95;;
73474;SDS011;61711;52.266;10.542;2023-02-21T05:02:04;45.63;;;17.27;;
73474;SDS011;61711;52.266;10.542;2023-02-21T05:04:30;42.65;;;17.25;;
73474;SDS011;61711;52.266;10.542;2023-02-21T05:06:59;46.25;;;16.77;;
73474;SDS011;61711;52.266;10.542;2023-02-21T05:09:25;45.40;;;17.42;;
73474;SDS011;61711;52.266;10.542;2023-02-21T05:11:51;43.85;;;17.25;;
73474;SDS011;61711;52.266;10.542;2023-02-21T05:14:17;39.22;;;16.38;;
73474;SDS011;61711;52.266;10.542;2023-02-21T05:16:43;43.47;;;17.08;;
73474;SDS011;61711;52.266;10.542;2023-02-21T05:19:09;45.83;;;18.00;;
73474;SDS011;61711;52.266;10.542;2023-02-21T05:21:35;44.38;;;17.90;;
73474;SDS011;61711;52.266;10.542;2023-02-21T05:24:03;47.25;;;18.02;;
73474;SDS011;61711;52.266;10.542;2023-02-21T05:26:31;42.40;;;17.67;;
73474;SDS011;61711;52.266;10.542;2023-02-21T05:28:58;41.50;;;17.33;;
73474;SDS011;61711;52.266;10.542;2023-02-21T05:31:24;44.28;;;18.25;;
73474;SDS011;61711;52.266;10.542;2023-02-21T05:33:50;45.58;;;18.35;;
73474;SDS011;61711;52.266;10.542;2023-02-21T05:36:16;46.67;;;19.02;;
73474;SDS011;61711;52.266;10.542;2023-02-21T05:38:49;46.75;;;18.20;;
73474;SDS011;61711;52.266;10.542;2023-02-21T05:41:15;49.15;;;18.58;;
73474;SDS011;61711;52.266;10.542;2023-02-21T05:43:45;45.40;;;18.52;;
73474;SDS011;61711;52.266;10.542;2023-02-21T05:46:16;45.05;;;18.73;;
73474;SDS011;61711;52.266;10.542;2023-02-21T05:48:42;46.20;;;17.95;;
73474;SDS011;61711;52.266;10.542;2023-02-21T05:51:08;42.55;;;19.00;;
73474;SDS011;61711;52.266;10.542;2023-02-21T05:53:34;46.35;;;18.48;;
73474;SDS011;61711;52.266;10.542;2023-02-21T05:56:00;47.35;;;18.15;;
73474;SDS011;61711;52.266;10.542;2023-02-21T05:58:26;48.22;;;19.50;;
73474;SDS011;61711;52.266;10.542;2023-02-21T06:00:52;44.40;;;17.33;;
73474;SDS011;61711;52.266;10.542;2023-02-21T06:03:18;45.10;;;18.75;;
73474;SDS011;61711;52.266;10.542;2023-02-21T06:05:44;47.92;;;18.88;;
73474;SDS011;61711;52.266;10.542;2023-02-21T06:08:10;44.60;;;17.58;;
73474;SDS011;61711;52.266;10.542;2023-02-21T06:10:36;42.00;;;17.45;;
73474;SDS011;61711;52.266;10.542;2023-02-21T06:13:02;46.58;;;17.15;;
73474;SDS011;61711;52.266;10.542;2023-02-21T06:15:28;41.90;;;16.63;;
73474;SDS011;61711;52.266;10.542;2023-02-21T06:17:54;42.30;;;16.70;;
73474;SDS011;61711;52.266;10.542;2023-02-21T06:20:20;44.72;;;16.23;;
73474;SDS011;61711;52.266;10.542;2023-02-21T06:22:46;41.08;;;17.00;;
73474;SDS011;61711;52.266;10.542;2023-02-21T06:25:13;42.05;;;16.70;;
73474;SDS011;61711;52.266;10.542;2023-02-21T06:27:39;39.58;;;15.57;;
73474;SDS011;61711;52.266;10.542;2023-02-21T06:30:05;36.78;;;16.52;;
73474;SDS011;61711;52.266;10.542;2023-02-21T06:32:32;42.55;;;16.73;;
73474;SDS011;61711;52.266;10.542;2023-02-21T06:34:58;38.40;;;15.98;;
73474;SDS011;61711;52.266;10.542;2023-02-21T06:37:24;39.65;;;15.18;;
73474;SDS011;61711;52.266;10.542;2023-02-21T06:39:50;37.33;;;14.65;;
73474;SDS011;61711;52.266;10.542;2023-02-21T06:42:16;35.47;;;15.57;;
73474;SDS011;61711;52.266;10.542;2023-02-21T06:44:46;37.22;;;14.80;;
73474;SDS011;61711;52.266;10.542;2023-02-21T06:47:13;37.83;;;14.80;;
73474;SDS011;61711;52.266;10.542;2023-02-21T06:49:39;35.85;;;14.50;;
73474;SDS011;61711;52.266;10.542;2023-02-21T06:52:05;34.53;;;14.23;;
73474;SDS011;61711;52.266;10.542;2023-02-21T06:54:31;36.97;;;13.60;;
73474;SDS011;61711;52.266;10.542;2023-02-21T06:56:57;35.10;;;14.48;;
73474;SDS011;61711;52.266;10.542;2023-02-21T06:59:25;36.42;;;15.43;;
73474;SDS011;61711;52.266;10.542;2023-02-21T07:01:51;31.73;;;13.65;;
73474;SDS011;61711;52.266;10.542;2023-02-21T07:04:17;32.50;;;13.32;;
73474;SDS011;61711;52.266;10.542;2023-02-21T07:06:43;34.80;;;13.95;;
73474;SDS011;61711;52.266;10.542;2023-02-21T07:09:09;36.30;;;14.43;;
73474;SDS011;61711;52.266;10.542;2023-02-21T07:11:35;38.70;;;14.88;;
73474;SDS011;61711;52.266;10.542;2023-02-21T07:14:02;35.38;;;13.35;;
73474;SDS011;61711;52.266;10.542;2023-02-21T07:16:28;35.55;;;14.00;;
73474;SDS011;61711;52.266;10.542;2023-02-21T07:18:54;34.60;;;14.38;;
73474;SDS011;61711;52.266;10.542;2023-02-21T07:21:20;33.53;;;13.82;;
73474;SDS011;61711;52.266;10.542;2023-02-21T07:23:46;37.97;;;15.30;;
73474;SDS011;61711;52.266;10.542;2023-02-21T07:26:13;38.58;;;14.43;;
73474;SDS011;61711;52.266;10.542;2023-02-21T07:28:39;35.60;;;14.40;;
73474;SDS011;61711;52.266;10.542;2023-02-21T07:31:05;30.90;;;13.35;;
73474;SDS011;61711;52.266;10.542;2023-02-21T07:33:31;36.50;;;14.25;;
73474;SDS011;61711;52.266;10.542;2023-02-21T07:35:58;36.67;;;13.63;;
73474;SDS011;61711;52.266;10.542;2023-02-21T07:38:25;32.88;;;14.27;;
73474;SDS011;61711;52.266;10.542;2023-02-21T07:40:54;33.55;;;14.25;;
73474;SDS011;61711;52.266;10.542;2023-02-21T07:43:21;34.67;;;13.48;;
73474;SDS011;61711;52.266;10.542;2023-02-21T07:45:47;33.38;;;13.75;;
73474;SDS011;61711;52.266;10.542;2023-02-21T07:48:13;34.17;;;13.93;;
73474;SDS011;61711;52.266;10.542;2023-02-21T07:50:42;35.83;;;13.80;;
73474;SDS011;61711;52.266;10.542;2023-02-21T07:53:09;32.65;;;13.50;;
73474;SDS011;61711;52.266;10.542;2023-02-21T07:55:35;34.10;;;14.00;;
73474;SDS011;61711;52.266;10.542;2023-02-21T07:58:01;34.60;;;14.23;;
73474;SDS011;61711;52.266;10.542;2023-02-21T08:00:27;36.05;;;14.32;;
73474;SDS011;61711;52.266;10.542;2023-02-21T08:02:53;32.05;;;13.40;;
73474;SDS011;61711;52.266;10.542;2023-02-21T08:05:20;37.05;;;14.00;;
73474;SDS011;61711;52.266;10.542;2023-02-21T08:07:46;34.20;;;14.10;;
73474;SDS011;61711;52.266;10.542;2023-02-21T08:10:13;35.55;;;13.98;;
73474;SDS011;61711;52.266;10.542;2023-02-21T08:12:43;36.28;;;14.45;;
73474;SDS011;61711;52.266;10.542;2023-02-21T08:15:10;38.15;;;14.57;;
73474;SDS011;61711;52.266;10.542;2023-02-21T08:17:36;35.15;;;14.07;;
73474;SDS011;61711;52.266;10.542;2023-02-21T08:20:02;33.20;;;13.80;;
73474;SDS011;61711;52.266;10.542;2023-02-21T08:22:30;35.35;;;14.25;;
73474;SDS011;61711;52.266;10.542;2023-02-21T08:24:56;35.92;;;14.27;;
73474;SDS011;61711;52.266;10.542;2023-02-21T08:27:22;34.75;;;14.68;;
73474;SDS011;61711;52.266;10.542;2023-02-21T08:29:48;37.15;;;14.05;;
73474;SDS011;61711;52.266;10.542;2023-02-21T08:32:15;36.92;;;15.38;;
73474;SDS011;61711;52.266;10.542;2023-02-21T08:34:43;33.22;;;14.48;;
73474;SDS011;61711;52.266;10.542;2023-02-21T08:37:09;33.80;;;14.35;;
73474;SDS011;61711;52.266;10.542;2023-02-21T08:39:50;33.72;;;13.68;;
73474;SDS011;61711;52.266;10.542;2023-02-21T08:42:17;35.15;;;14.45;;
73474;SDS011;61711;52.266;10.542;2023-02-21T08:44:43;33.47;;;14.63;;
73474;SDS011;61711;52.266;10.542;2023-02-21T08:47:09;37.53;;;15.45;;
73474;SDS011;61711;52.266;10.542;2023-02-21T08:49:35;36.08;;;14.77;;
73474;SDS011;61711;52.266;10.542;2023-02-21T08:52:06;39.47;;;16.10;;
73474;SDS011;61711;52.266;10.542;2023-02-21T08:54:32;37.97;;;15.25;;
73474;SDS011;61711;52.266;10.542;2023-02-21T08:56:58;34.92;;;14.30;;
73474;SDS011;61711;52.266;10.542;2023-02-21T08:59:25;41.53;;;15.98;;
73474;SDS011;61711;52.266;10.542;2023-02-21T09:01:52;42.63;;;15.77;;
73474;SDS011;61711;52.266;10.542;2023-02-21T09:04:19;41.50;;;16.90;;
73474;SDS011;61711;52.266;10.542;2023-02-21T09:06:45;39.58;;;16.02;;
73474;SDS011;61711;52.266;10.542;2023-02-21T09:09:11;37.28;;;15.55;;
73474;SDS011;61711;52.266;10.542;2023-02-21T09:11:37;39.00;;;16.73;;
73474;SDS011;61711;52.266;10.542;2023-02-21T09:14:03;43.63;;;16.85;;
73474;SDS011;61711;52.266;10.542;2023-02-21T09:16:30;42.42;;;16.42;;
73474;SDS011;61711;52.266;10.542;2023-02-21T09:18:57;40.33;;;15.68;;
73474;SDS011;61711;52.266;10.542;2023-02-21T09:21:24;40.92;;;15.77;;
73474;SDS011;61711;52.266;10.542;2023-02-21T09:23:51;36.30;;;15.00;;
73474;SDS011;61711;52.266;10.542;2023-02-21T09:26:18;39.38;;;15.38;;
73474;SDS011;61711;52.266;10.542;2023-02-21T09:28:46;37.72;;;15.45;;
73474;SDS011;61711;52.266;10.542;2023-02-21T09:31:12;38.15;;;15.93;;
73474;SDS011;61711;52.266;10.542;2023-02-21T09:33:38;40.42;;;15.30;;
73474;SDS011;61711;52.266;10.542;2023-02-21T09:36:05;38.63;;;15.05;;
73474;SDS011;61711;52.266;10.542;2023-02-21T09:38:32;36.47;;;13.98;;
73474;SDS011;61711;52.266;10.542;2023-02-21T09:40:59;37.33;;;14.90;;
73474;SDS011;61711;52.266;10.542;2023-02-21T09:43:27;35.78;;;14.95;;
73474;SDS011;61711;52.266;10.542;2023-02-21T09:45:57;34.80;;;15.45;;
73474;SDS011;61711;52.266;10.542;2023-02-21T09:48:23;37.05;;;15.27;;
73474;SDS011;61711;52.266;10.542;2023-02-21T09:50:52;33.50;;;14.73;;
73474;SDS011;61711;52.266;10.542;2023-02-21T09:53:22;38.85;;;15.98;;
73474;SDS011;61711;52.266;10.542;2023-02-21T09:55:49;35.85;;;15.25;;
73474;SDS011;61711;52.266;10.542;2023-02-21T09:58:17;38.15;;;15.30;;
73474;SDS011;61711;52.266;10.542;2023-02-21T10:00:43;35.30;;;14.63;;
73474;SDS011;61711;52.266;10.542;2023-02-21T10:03:14;36.35;;;15.00;;
73474;SDS011;61711;52.266;10.542;2023-02-21T10:21:00;32.28;;;13.30;;
73474;SDS011;61711;52.266;10.542;2023-02-21T10:23:49;28.65;;;13.13;;
73474;SDS011;61711;52.266;10.542;2023-02-21T10:26:23;28.92;;;12.80;;
73474;SDS011;61711;52.266;10.542;2023-02-21T10:28:50;28.77;;;13.20;;
73474;SDS011;61711;52.266;10.542;2023-02-21T10:31:19;27.55;;;12.60;;
73474;SDS011;61711;52.266;10.542;2023-02-21T10:33:47;25.85;;;11.50;;
73474;SDS011;61711;52.266;10.542;2023-02-21T10:36:15;29.77;;;12.50;;
73474;SDS011;61711;52.266;10.542;2023-02-21T10:38:42;27.52;;;11.45;;
73474;SDS011;61711;52.266;10.542;2023-02-21T10:41:09;27.88;;;12.13;;
73474;SDS011;61711;52.266;10.542;2023-02-21T10:43:41;30.45;;;12.55;;
73474;SDS011;61711;52.266;10.542;2023-02-21T10:46:19;27.80;;;12.60;;
73474;SDS011;61711;52.266;10.542;2023-02-21T10:48:49;27.63;;;12.27;;
73474;SDS011;61711;52.266;10.542;2023-02-21T10:51:17;28.98;;;12.63;;
73474;SDS011;61711;52.266;10.542;2023-02-21T10:53:52;29.63;;;12.60;;
73474;SDS011;61711;52.266;10.542;2023-02-21T10:56:20;37.22;;;14.52;;
73474;SDS011;61711;52.266;10.542;2023-02-21T10:58:49;32.60;;;13.73;;
73474;SDS011;61711;52.266;10.542;2023-02-21T11:01:19;33.83;;;15.05;;
73474;SDS011;61711;52.266;10.542;2023-02-21T11:03:49;32.45;;;13.88;;
73474;SDS011;61711;52.266;10.542;2023-02-21T11:11:58;33.17;;;14.45;;
73474;SDS011;61711;52.266;10.542;2023-02-21T11:14:24;33.72;;;14.45;;
73474;SDS011;61711;52.266;10.542;2023-02-21T11:17:04;31.48;;;13.52;;
73474;SDS011;61711;52.266;10.542;2023-02-21T11:22:09;31.20;;;14.07;;
73474;SDS011;61711;52.266;10.542;2023-02-21T11:24:46;32.22;;;14.55;;
73474;SDS011;61711;52.266;10.542;2023-02-21T11:27:14;30.40;;;13.35;;
73474;SDS011;61711;52.266;10.542;2023-02-21T11:29:41;30.00;;;13.73;;
73474;SDS011;61711;52.266;10.542;2023-02-21T11:32:11;31.40;;;13.30;;
73474;SDS011;61711;52.266;10.542;2023-02-21T11:34:38;30.73;;;13.02;;
73474;SDS011;61711;52.266;10.542;2023-02-21T11:37:12;30.88;;;13.18;;
73474;SDS011;61711;52.266;10.542;2023-02-21T11:39:38;29.55;;;13.52;;
73474;SDS011;61711;52.266;10.542;2023-02-21T11:42:22;30.90;;;13.40;;
73474;SDS011;61711;52.266;10.542;2023-02-21T11:44:48;29.20;;;12.90;;
73474;SDS011;61711;52.266;10.542;2023-02-21T11:47:24;25.95;;;11.90;;
73474;SDS011;61711;52.266;10.542;2023-02-21T11:52:28;23.38;;;11.27;;
73474;SDS011;61711;52.266;10.542;2023-02-21T11:54:56;24.55;;;10.95;;
73474;SDS011;61711;52.266;10.542;2023-02-21T11:57:29;24.60;;;11.30;;
73474;SDS011;61711;52.266;10.542;2023-02-21T12:05:05;21.13;;;10.27;;
73474;SDS011;61711;52.266;10.542;2023-02-21T12:07:48;21.80;;;10.55;;
73474;SDS011;61711;52.266;10.542;2023-02-21T12:12:54;21.90;;;10.20;;
73474;SDS011;61711;52.266;10.542;2023-02-21T12:15:23;22.10;;;10.45;;
73474;SDS011;61711;52.266;10.542;2023-02-21T12:20:38;21.65;;;10.45;;
73474;SDS011;61711;52.266;10.542;2023-02-21T12:23:13;21.55;;;10.65;;
73474;SDS011;61711;52.266;10.542;2023-02-21T12:28:42;21.17;;;9.98;;
73474;SDS011;61711;52.266;10.542;2023-02-21T12:31:16;23.92;;;10.70;;
73474;SDS011;61711;52.266;10.542;2023-02-21T12:33:50;21.08;;;9.85;;
73474;SDS011;61711;52.266;10.542;2023-02-21T12:41:48;19.38;;;10.00;;
73474;SDS011;61711;52.266;10.542;2023-02-21T12:44:20;23.83;;;9.82;;
73474;SDS011;61711;52.266;10.542;2023-02-21T12:52:14;17.88;;;8.57;;
73474;SDS011;61711;52.266;10.542;2023-02-21T12:57:42;19.17;;;8.85;;
73474;SDS011;61711;52.266;10.542;2023-02-21T13:02:49;18.95;;;8.77;;
73474;SDS011;61711;52.266;10.542;2023-02-21T13:05:18;18.77;;;8.88;;
73474;SDS011;61711;52.266;10.542;2023-02-21T13:07:48;17.27;;;8.25;;
73474;SDS011;61711;52.266;10.542;2023-02-21T13:10:19;18.77;;;9.18;;
73474;SDS011;61711;52.266;10.542;2023-02-21T13:12:51;17.55;;;8.35;;
73474;SDS011;61711;52.266;10.542;2023-02-21T13:15:20;17.67;;;8.60;;
73474;SDS011;61711;52.266;10.542;2023-02-21T13:20:36;17.27;;;8.65;;
73474;SDS011;61711;52.266;10.542;2023-02-21T13:26:15;17.38;;;8.75;;
73474;SDS011;61711;52.266;10.542;2023-02-21T13:28:45;20.98;;;9.07;;
73474;SDS011;61711;52.266;10.542;2023-02-21T13:31:23;17.00;;;8.48;;
73474;SDS011;61711;52.266;10.542;2023-02-21T13:33:50;17.05;;;8.57;;
73474;SDS011;61711;52.266;10.542;2023-02-21T13:36:25;15.88;;;8.57;;
73474;SDS011;61711;52.266;10.542;2023-02-21T13:38:58;18.50;;;9.07;;
73474;SDS011;61711;52.266;10.542;2023-02-21T13:41:26;19.45;;;9.18;;
73474;SDS011;61711;52.266;10.542;2023-02-21T13:43:53;18.48;;;8.93;;
73474;SDS011;61711;52.266;10.542;2023-02-21T13:51:46;16.83;;;8.93;;
73474;SDS011;61711;52.266;10.542;2023-02-21T13:54:12;15.27;;;8.10;;
73474;SDS011;61711;52.266;10.542;2023-02-21T13:56:47;17.35;;;8.52;;
73474;SDS011;61711;52.266;10.542;2023-02-21T14:01:49;16.73;;;8.80;;
73474;SDS011;61711;52.266;10.542;2023-02-21T14:04:48;16.88;;;9.20;;
73474;SDS011;61711;52.266;10.542;2023-02-21T14:07:13;17.48;;;8.65;;
73474;SDS011;61711;52.266;10.542;2023-02-21T14:09:39;16.17;;;8.30;;
73474;SDS011;61711;52.266;10.542;2023-02-21T14:12:06;14.43;;;8.00;;
73474;SDS011;61711;52.266;10.542;2023-02-21T14:14:35;17.42;;;9.00;;
73474;SDS011;61711;52.266;10.542;2023-02-21T14:17:08;17.13;;;8.60;;
73474;SDS011;61711;52.266;10.542;2023-02-21T14:24:49;16.35;;;8.75;;
73474;SDS011;61711;52.266;10.542;2023-02-21T14:32:31;15.32;;;8.25;;
73474;SDS011;61711;52.266;10.542;2023-02-21T14:34:59;16.13;;;7.72;;
73474;SDS011;61711;52.266;10.542;2023-02-21T15:00:18;15.48;;;8.50;;
73474;SDS011;61711;52.266;10.542;2023-02-21T15:07:53;18.35;;;8.57;;
73474;SDS011;61711;52.266;10.542;2023-02-21T15:12:50;17.02;;;8.65;;
73474;SDS011;61711;52.266;10.542;2023-02-21T15:15:25;16.52;;;8.70;;
73474;SDS011;61711;52.266;10.542;2023-02-21T15:17:55;15.40;;;8.18;;
73474;SDS011;61711;52.266;10.542;2023-02-21T15:20:23;19.15;;;8.98;;
73474;SDS011;61711;52.266;10.542;2023-02-21T15:22:56;16.08;;;8.68;;
73474;SDS011;61711;52.266;10.542;2023-02-21T15:25:22;17.10;;;9.07;;
73474;SDS011;61711;52.266;10.542;2023-02-21T15:30:16;16.15;;;8.48;;
73474;SDS011;61711;52.266;10.542;2023-02-21T15:32:43;16.02;;;7.90;;
73474;SDS011;61711;52.266;10.542;2023-02-21T15:35:19;19.45;;;8.93;;
73474;SDS011;61711;52.266;10.542;2023-02-21T15:37:47;17.83;;;9.02;;
73474;SDS011;61711;52.266;10.542;2023-02-21T15:40:20;18.80;;;9.07;;
73474;SDS011;61711;52.266;10.542;2023-02-21T15:42:47;21.13;;;9.15;;
73474;SDS011;61711;52.266;10.542;2023-02-21T15:45:15;14.63;;;8.13;;
73474;SDS011;61711;52.266;10.542;2023-02-21T15:47:43;17.20;;;8.82;;
73474;SDS011;61711;52.266;10.542;2023-02-21T15:50:12;18.38;;;8.90;;
73474;SDS011;61711;52.266;10.542;2023-02-21T15:52:42;17.60;;;9.05;;
73474;SDS011;61711;52.266;10.542;2023-02-21T15:58:00;20.67;;;9.00;;
73474;SDS011;61711;52.266;10.542;2023-02-21T16:03:24;19.60;;;9.55;;
73474;SDS011;61711;52.266;10.542;2023-02-21T16:05:38;20.45;;;9.90;;
73474;SDS011;61711;52.266;10.542;2023-02-21T16:08:04;21.90;;;9.88;;
73474;SDS011;61711;52.266;10.542;2023-02-21T16:10:30;30.77;;;14.30;;
73474;SDS011;61711;52.266;10.542;2023-02-21T16:13:00;26.20;;;12.43;;
73474;SDS011;61711;52.266;10.542;2023-02-21T16:15:27;19.75;;;10.02;;
73474;SDS011;61711;52.266;10.542;2023-02-21T16:17:55;18.58;;;9.25;;
73474;SDS011;61711;52.266;10.542;2023-02-21T16:20:22;19.92;;;9.90;;
73474;SDS011;61711;52.266;10.542;2023-02-21T16:23:10;19.52;;;9.80;;
73474;SDS011;61711;52.266;10.542;2023-02-21T16:25:57;20.83;;;9.68;;
73474;SDS011;61711;52.266;10.542;2023-02-21T16:28:23;20.15;;;9.70;;
73474;SDS011;61711;52.266;10.542;2023-02-21T16:30:49;22.35;;;10.75;;
73474;SDS011;61711;52.266;10.542;2023-02-21T16:33:15;35.50;;;15.63;;
73474;SDS011;61711;52.266;10.542;2023-02-21T16:35:41;25.77;;;10.77;;
73474;SDS011;61711;52.266;10.542;2023-02-21T16:38:15;22.52;;;10.27;;
73474;SDS011;61711;52.266;10.542;2023-02-21T16:40:41;22.17;;;10.43;;
73474;SDS011;61711;52.266;10.542;2023-02-21T16:43:07;23.23;;;10.18;;
73474;SDS011;61711;52.266;10.542;2023-02-21T16:45:40;25.13;;;10.80;;
73474;SDS011;61711;52.266;10.542;2023-02-21T16:48:09;23.05;;;10.25;;
73474;SDS011;61711;52.266;10.542;2023-02-21T16:50:37;24.63;;;10.40;;
73474;SDS011;61711;52.266;10.542;2023-02-21T16:53:04;25.98;;;10.95;;
73474;SDS011;61711;52.266;10.542;2023-02-21T16:55:30;24.02;;;11.40;;
73474;SDS011;61711;52.266;10.542;2023-02-21T16:58:00;25.13;;;11.32;;
73474;SDS011;61711;52.266;10.542;2023-02-21T17:00:27;28.05;;;11.15;;